Finley, Missouri
Current Conditions -  °F | °C
As of 4:52 PM on Friday 19 Dec 2014 (Local Time) from KSGF Reporting Station
Overcast Overcast  
Wind Chill: 34°   Ceiling: 800
Heat Index: 39°   Visibility: 8mi
Dew Point: 36°   Wind: 7mph
Humidity: 89%   Direction: 140°SE
Pressure: 30.18"   Gusts: NA
Location:  36.9964°N, 93.1892°W
Report Text: KSGF 192252Z 14006KT 8SM OVC008 04/02 A3018 RMK AO2 CIG 007V011 SLP226 T00390022
Loading
Personal Weather Stations






























Interactive Weather Map New forecast layout! Learn more

10-Day Weather Forecast

Advertisements
Track Severe Weather on mobile